Strona główna
METAR-TAF:

METAR-TAF

Lotnisko :

San Fernando, Argentyna

Szerokość geograficzna: 34-27-11S, Długość geograficzna: 058-35-23W, wysokość: 3 m

Aktualna obserwacja pogody

Raport powstał 1 godzina i 17 minut temu, godzina 17:00 UTC
Cisza
Temperatura 14°C
Wilgotność 55%
Ciśnienie 1027 hPa
Widzialność 10 km lub więcej
Brak chmur poniżej 1500 m i brak chmur cumulonimbus

METAR: SADF 151700Z 00000KT CAVOK 14/05 Q1027

czas: 15:17 (18:17 UTC)

Prognoza

Raport powstał 1 godzina i 17 minut temu, godzina 17:00 UTC
Prognoza ważna od 15 godzina 18 UTC do 16 godzina 18 UTC
Wiatr 5 kt od wschodnio-północny wschód
Widzialność 10 km lub więcej
Brak chmur poniżej 1500 m i brak chmur cumulonimbus
Stopniowe zmiany
od 16 godzina 12 UTC do 16 godzina 14 UTC
Wiatr 10 kt od północ

TAF: SADF 151700Z 1518/1618 07005KT CAVOK TX17/1618Z TN08/1610Z BECMG 1612/1614 36010KT

Obserwacja i prognoza pogody dla ponad 4000 lotnisk (raport METAR i TAF).

Dostępne stacje oznaczono żółtymi i czerwonymi punktami na mapie.

Najedź kursorem aby zobaczyć nazwę stacji.

Kliknij aby zobaczyć obserwacje i prognozy pogody.

Aby zmienić mapę: kliknij na zielony przycisk z czarnym krzyżykiem, aby powiększyć; na zielony przycisk z myślnikiem, aby pomniejszyć; na zielone strzałki, aby przejść do map sąsiednich.


METAR-TAF: